Time;durP1;ratioP1;P1;durP2;ratioP2;P2;SDS_P1;SDS_P2;PMS_P1;PMS_P2;Temp;Humidity;BMP_temperature;BMP_pressure;BME280_temperature;BME280_humidity;BME280_pressure;Samples;Min_cycle;Max_cycle;Signal;HPM_P1;HPM_P2
2022/06/06 00:01:46;;;;;;;2.80;2.40;;;14.50;99.90;;;;;;5056422;28;20493;-92
2022/06/06 00:04:14;;;;;;;5.73;2.80;;;;;;;;;;5055564;28;20458;-90
2022/06/06 00:06:41;;;;;;;2.90;2.70;;;;;;;;;;5056455;28;20447;-91
2022/06/06 00:09:08;;;;;;;9.73;3.10;;;;;;;;;;5056685;28;20450;-93
2022/06/06 00:11:36;;;;;;;2.90;2.70;;;14.30;99.90;;;;;;5058410;28;20490;-93
2022/06/06 00:14:04;;;;;;;3.60;2.77;;;;;;;;;;5049795;28;20576;-92
2022/06/06 00:16:31;;;;;;;3.10;2.63;;;;;;;;;;5058598;28;20450;-92
2022/06/06 00:18:59;;;;;;;3.43;2.97;;;;;;;;;;5054997;28;20556;-91
2022/06/06 00:21:26;;;;;;;2.70;2.50;;;;;;;;;;5055940;28;20458;-91
2022/06/06 00:23:54;;;;;;;3.00;2.40;;;;;;;;;;5055801;28;20450;-92
2022/06/06 00:26:21;;;;;;;4.00;2.70;;;;;;;;;;5052714;28;20451;-94
2022/06/06 00:28:50;;;;;;;3.37;2.90;;;14.40;99.90;;;;;;5055533;28;20447;-93
2022/06/06 00:36:47;;;;;;;9.93;2.90;;;;;;;;;;5055613;28;20422;-93
2022/06/06 00:39:17;;;;;;;3.60;2.60;;;14.40;99.90;;;;;;5055371;28;20945;-92
2022/06/06 00:41:47;;;;;;;3.97;3.10;;;14.40;99.90;;;;;;5052541;28;20447;-93
2022/06/06 00:44:18;;;;;;;3.93;3.03;;;14.40;99.90;;;;;;5055559;28;20442;-93
2022/06/06 00:46:48;;;;;;;1.67;1.23;;;14.40;99.90;;;;;;5056082;28;20449;-88
2022/06/06 00:49:23;;;;;;;8.00;3.00;;;14.50;99.90;;;;;;5054028;28;20907;-90
2022/06/06 00:51:51;;;;;;;6.53;3.20;;;14.50;99.90;;;;;;5054948;28;20547;-88
2022/06/06 00:54:18;;;;;;;5.50;2.37;;;;;;;;;;5052154;28;20669;-90
2022/06/06 00:56:49;;;;;;;4.83;3.53;;;14.50;99.90;;;;;;5055104;28;20469;-88
2022/06/06 00:59:22;;;;;;;4.37;3.10;;;14.50;99.90;;;;;;5049770;28;20925;-89
2022/06/06 01:01:50;;;;;;;3.80;3.40;;;14.50;99.90;;;;;;5054952;28;20483;-90
2022/06/06 01:04:18;;;;;;;3.87;3.27;;;;;;;;;;5055631;28;20789;-92
2022/06/06 01:06:46;;;;;;;3.33;2.80;;;14.60;99.90;;;;;;5055681;28;20454;-90
2022/06/06 01:09:14;;;;;;;3.50;3.20;;;;;;;;;;5055457;28;20450;-93
2022/06/06 01:11:45;;;;;;;3.70;2.60;;;14.60;99.90;;;;;;5052065;28;20486;-91
2022/06/06 01:14:16;;;;;;;3.70;2.90;;;14.50;99.90;;;;;;5051807;28;20485;-89
2022/06/06 01:16:52;;;;;;;2.90;2.70;;;14.60;99.90;;;;;;5051994;28;20443;-92
2022/06/06 01:19:48;;;;;;;5.20;2.73;;;14.60;99.90;;;;;;5053655;28;20446;-90
2022/06/06 01:22:45;;;;;;;4.40;3.27;;;14.60;99.90;;;;;;5055514;28;20435;-90
2022/06/06 01:25:47;;;;;;;3.40;3.10;;;14.60;99.90;;;;;;5051523;28;20484;-90
2022/06/06 01:28:46;;;;;;;3.40;3.10;;;14.60;99.90;;;;;;5054548;28;20880;-94
2022/06/06 01:31:19;;;;;;;4.13;3.00;;;14.50;99.90;;;;;;5050858;28;20478;-92
2022/06/06 01:33:53;;;;;;;4.27;3.23;;;14.50;99.90;;;;;;5054372;28;20450;-91
2022/06/06 01:36:21;;;;;;;3.03;2.73;;;;;;;;;;5054032;28;20447;-92
2022/06/06 01:38:48;;;;;;;4.87;3.10;;;;;;;;;;5054725;28;20457;-92
2022/06/06 01:41:23;;;;;;;3.00;2.80;;;14.60;99.90;;;;;;5054437;28;20446;-94
2022/06/06 01:43:54;;;;;;;8.77;3.70;;;14.50;99.90;;;;;;5054431;28;20451;-92
2022/06/06 01:46:26;;;;;;;4.20;3.20;;;14.50;99.90;;;;;;5054255;28;20457;-94
2022/06/06 01:48:54;;;;;;;3.80;3.50;;;;;;;;;;5053730;28;20458;-91
2022/06/06 01:51:23;;;;;;;4.30;3.30;;;14.40;99.90;;;;;;5053548;28;20501;-92
2022/06/06 01:53:50;;;;;;;6.63;3.20;;;;;;;;;;5048841;28;20449;-92
2022/06/06 01:56:20;;;;;;;5.40;3.47;;;14.30;99.90;;;;;;5051021;28;20484;-92
2022/06/06 01:58:47;;;;;;;4.53;3.60;;;;;;;;;;5054296;28;20435;-93
2022/06/06 02:01:15;;;;;;;3.90;3.13;;;;;;;;;;5054150;28;20485;-94
2022/06/06 02:03:43;;;;;;;4.40;4.00;;;14.30;99.90;;;;;;5053762;28;20450;-91
2022/06/06 02:06:10;;;;;;;5.07;3.93;;;;;;;;;;5048015;28;20477;-94
2022/06/06 02:08:38;;;;;;;4.57;4.07;;;;;;;;;;5053847;28;20430;-93
2022/06/06 02:11:05;;;;;;;3.77;3.37;;;;;;;;;;5049926;28;20533;-91
2022/06/06 02:13:33;;;;;;;3.80;3.50;;;;;;;;;;5050982;28;20524;-93
2022/06/06 02:16:00;;;;;;;7.27;3.50;;;;;;;;;;5054131;28;20457;-92
2022/06/06 02:18:27;;;;;;;5.90;4.20;;;;;;;;;;5053929;28;20926;-93
2022/06/06 02:20:56;;;;;;;7.50;3.83;;;13.90;99.90;;;;;;5052574;28;20435;-94
2022/06/06 02:23:23;;;;;;;3.73;3.43;;;;;;;;;;5053651;28;20433;-92
2022/06/06 02:25:50;;;;;;;4.47;4.07;;;;;;;;;;5053582;28;20458;-91
2022/06/06 02:28:18;;;;;;;4.00;3.60;;;;;;;;;;5053789;28;20442;-90
2022/06/06 02:30:45;;;;;;;3.97;3.67;;;;;;;;;;5053811;28;20478;-92
2022/06/06 02:33:13;;;;;;;4.10;3.70;;;;;;;;;;5053656;28;20442;-92
2022/06/06 02:35:42;;;;;;;3.83;3.53;;;13.60;99.90;;;;;;5052727;28;20476;-92
2022/06/06 02:38:12;;;;;;;4.13;3.80;;;13.50;99.90;;;;;;5045818;28;20500;-93
2022/06/06 02:40:41;;;;;;;6.90;4.20;;;;;;;;;;5001288;28;20454;-92
2022/06/06 02:43:08;;;;;;;3.93;3.63;;;;;;;;;;5053892;28;20484;-95
2022/06/06 02:45:35;;;;;;;6.70;4.30;;;;;;;;;;5049948;28;20459;-93
2022/06/06 02:48:02;;;;;;;4.27;3.67;;;;;;;;;;5053237;28;20882;-91
2022/06/06 02:50:31;;;;;;;5.67;3.90;;;13.10;99.90;;;;;;5057261;28;20447;-93
2022/06/06 02:52:59;;;;;;;4.27;3.20;;;;;;;;;;5058496;28;20454;-93
2022/06/06 02:55:28;;;;;;;3.60;3.30;;;13.00;99.90;;;;;;5053872;28;20481;-94
2022/06/06 02:57:55;;;;;;;5.20;4.27;;;;;;;;;;5049208;28;20441;-93
2022/06/06 03:00:25;;;;;;;4.30;3.40;;;12.90;99.90;;;;;;5053487;28;20446;-92
2022/06/06 03:02:52;;;;;;;3.60;3.30;;;;;;;;;;5053712;28;20529;-94
2022/06/06 03:05:20;;;;;;;3.80;3.50;;;;;;;;;;5049406;28;20894;-91
2022/06/06 03:08:00;;;;;;;5.17;3.60;;;12.70;99.90;;;;;;5053121;28;20447;-93
2022/06/06 03:10:52;;;;;;;5.13;3.60;;;12.70;99.90;;;;;;5053586;28;20446;-94
2022/06/06 03:13:36;;;;;;;4.03;3.73;;;12.60;99.90;;;;;;5053321;28;20450;-91
2022/06/06 03:22:02;;;;;;;6.93;3.43;;;12.60;99.90;;;;;;5053586;28;20438;-94
2022/06/06 03:24:41;;;;;;;4.53;4.13;;;12.60;99.90;;;;;;5057021;28;20441;-93
2022/06/06 03:27:22;;;;;;;5.60;4.10;;;12.60;99.90;;;;;;5052026;28;20449;-93
2022/06/06 03:30:00;;;;;;;6.03;3.70;;;12.60;99.90;;;;;;5051925;28;20456;-94
2022/06/06 03:32:40;;;;;;;4.70;4.30;;;12.50;99.90;;;;;;5053643;28;20493;-93
2022/06/06 03:35:14;;;;;;;5.93;4.10;;;12.50;99.90;;;;;;5053003;28;20446;-92
2022/06/06 03:37:49;;;;;;;4.40;4.00;;;12.40;99.90;;;;;;5056786;28;20442;-92
2022/06/06 03:40:23;;;;;;;4.93;3.90;;;12.50;99.90;;;;;;5057101;28;20454;-93
2022/06/06 03:43:01;;;;;;;8.07;4.10;;;12.60;99.90;;;;;;5056596;28;20814;-92
2022/06/06 03:45:38;;;;;;;4.10;3.70;;;12.70;99.90;;;;;;5056801;28;20460;-93
2022/06/06 03:48:17;;;;;;;5.97;4.47;;;12.90;99.90;;;;;;5056871;28;20481;-93
2022/06/06 03:50:49;;;;;;;5.23;4.20;;;12.90;99.90;;;;;;5055335;28;20454;-93
2022/06/06 03:53:20;;;;;;;6.50;4.33;;;13.00;99.90;;;;;;5056620;28;20462;-96
2022/06/06 03:55:58;;;;;;;4.93;4.53;;;13.10;99.90;;;;;;5053590;28;20449;-90
2022/06/06 03:58:31;;;;;;;5.77;3.77;;;13.20;99.90;;;;;;5056611;28;20442;-95
2022/06/06 04:01:01;;;;;;;4.37;3.97;;;13.30;99.90;;;;;;5051732;28;20490;-93
2022/06/06 04:03:29;;;;;;;6.13;4.13;;;13.30;99.90;;;;;;5052823;28;20451;-93
2022/06/06 04:05:57;;;;;;;6.27;4.50;;;13.40;99.90;;;;;;5055974;28;20819;-93
2022/06/06 04:08:24;;;;;;;6.53;4.40;;;;;;;;;;5056899;28;20450;-91
2022/06/06 04:11:01;;;;;;;4.73;4.20;;;13.40;99.90;;;;;;5056489;28;20463;-91
2022/06/06 04:13:42;;;;;;;6.20;4.20;;;13.50;99.90;;;;;;5053349;28;20857;-93
2022/06/06 04:16:21;;;;;;;5.60;4.23;;;13.60;99.90;;;;;;5056333;28;20501;-93
2022/06/06 04:18:59;;;;;;;5.77;4.60;;;13.70;99.90;;;;;;5056315;28;20438;-90
2022/06/06 04:21:38;;;;;;;8.00;4.17;;;13.70;99.90;;;;;;5056441;28;20442;-92
2022/06/06 04:24:25;;;;;;;4.63;3.67;;;13.80;99.90;;;;;;5053595;28;20438;-94
2022/06/06 04:27:02;;;;;;;4.47;4.07;;;13.80;99.90;;;;;;5056435;28;20557;-94
2022/06/06 04:29:40;;;;;;;4.90;4.00;;;13.90;99.90;;;;;;5056390;28;20447;-94
2022/06/06 04:32:16;;;;;;;4.47;4.07;;;13.90;99.90;;;;;;5048015;28;20494;-94
2022/06/06 04:34:51;;;;;;;4.30;3.90;;;14.00;99.90;;;;;;5054206;28;20465;-92
2022/06/06 04:37:24;;;;;;;4.60;4.07;;;14.00;99.90;;;;;;5056194;28;20454;-92
2022/06/06 04:39:58;;;;;;;4.47;4.00;;;14.20;99.90;;;;;;5052132;28;20454;-91
2022/06/06 04:42:31;;;;;;;4.53;4.10;;;14.30;99.90;;;;;;5056549;28;20782;-91
2022/06/06 04:45:06;;;;;;;5.40;3.80;;;14.40;99.90;;;;;;5056295;28;20512;-91
2022/06/06 04:47:36;;;;;;;4.00;3.57;;;14.50;99.90;;;;;;5056062;28;20462;-89
2022/06/06 04:50:05;;;;;;;5.10;4.60;;;15.20;99.90;;;;;;5054810;28;20934;-92
2022/06/06 04:52:34;;;;;;;4.60;3.43;;;14.60;99.90;;;;;;5055733;28;20494;-90
2022/06/06 04:55:03;;;;;;;4.30;3.60;;;14.70;99.90;;;;;;5055839;28;20454;-91
2022/06/06 04:57:31;;;;;;;4.43;4.03;;;14.80;99.90;;;;;;5051799;28;20809;-89
2022/06/06 05:00:04;;;;;;;4.80;4.30;;;14.90;99.90;;;;;;5052529;28;20450;-90
2022/06/06 05:02:33;;;;;;;3.80;3.50;;;15.00;99.90;;;;;;5055647;28;20517;-93
2022/06/06 05:05:00;;;;;;;5.93;4.17;;;;;;;;;;5051805;28;20439;-91
2022/06/06 05:07:54;;;;;;;4.40;4.00;;;15.20;99.90;;;;;;5055758;28;20806;-91
2022/06/06 05:10:46;;;;;;;4.10;3.70;;;15.30;99.90;;;;;;5055178;28;20470;-91
2022/06/06 05:13:59;;;;;;;4.17;3.77;;;15.50;99.90;;;;;;5052275;28;20501;-88
2022/06/06 05:16:46;;;;;;;3.83;3.43;;;15.70;99.90;;;;;;4997362;28;20853;-93
2022/06/06 05:19:35;;;;;;;3.90;3.60;;;15.30;99.90;;;;;;5053312;28;20446;-92
2022/06/06 05:22:38;;;;;;;6.80;3.80;;;15.60;99.90;;;;;;5054586;28;20454;-92
2022/06/06 05:25:25;;;;;;;7.47;3.30;;;15.50;99.90;;;;;;5037577;28;20461;-89
2022/06/06 05:28:13;;;;;;;4.03;3.70;;;15.60;99.90;;;;;;5061382;28;20450;-91
2022/06/06 05:30:50;;;;;;;4.50;3.60;;;15.90;99.90;;;;;;5057379;28;20455;-90
2022/06/06 05:33:26;;;;;;;6.07;4.40;;;15.90;99.90;;;;;;5054243;28;20501;-91
2022/06/06 05:36:25;;;;;;;6.77;3.50;;;15.70;99.90;;;;;;5054800;28;20477;-91
2022/06/06 05:39:04;;;;;;;4.80;3.80;;;15.80;99.90;;;;;;4998166;28;20458;-91
2022/06/06 05:41:44;;;;;;;4.97;4.03;;;16.10;99.90;;;;;;5052391;28;20450;-91
2022/06/06 05:44:18;;;;;;;4.03;3.73;;;16.40;99.90;;;;;;5052773;28;20442;-90
2022/06/06 05:46:53;;;;;;;3.53;3.23;;;16.70;99.90;;;;;;5054306;28;20453;-91
2022/06/06 05:49:36;;;;;;;4.27;3.60;;;17.20;99.90;;;;;;5053099;28;20798;-90
2022/06/06 05:52:28;;;;;;;5.90;3.23;;;17.50;99.90;;;;;;5054509;28;20494;-90
2022/06/06 05:55:15;;;;;;;3.67;3.30;;;17.50;99.90;;;;;;5054607;28;20455;-93
2022/06/06 05:58:07;;;;;;;5.00;3.77;;;17.30;99.90;;;;;;5054633;28;20812;-92
2022/06/06 06:00:48;;;;;;;5.27;3.27;;;17.20;99.90;;;;;;5054354;28;20446;-92
2022/06/06 06:03:46;;;;;;;4.20;3.70;;;17.50;99.90;;;;;;5054638;28;20446;-92
2022/06/06 06:06:22;;;;;;;4.33;3.70;;;18.20;99.90;;;;;;5053417;28;20466;-90
2022/06/06 06:09:25;;;;;;;3.93;3.60;;;18.00;99.90;;;;;;5049265;28;20465;-90
2022/06/06 06:12:28;;;;;;;3.73;3.30;;;18.60;99.90;;;;;;5002733;28;20489;-92
2022/06/06 06:15:10;;;;;;;5.20;3.47;;;18.10;99.90;;;;;;5054027;28;20457;-91
2022/06/06 06:17:39;;;;;;;4.33;3.30;;;18.30;99.90;;;;;;5049866;28;20533;-90
2022/06/06 06:20:10;;;;;;;4.17;3.60;;;18.00;99.90;;;;;;5052932;28;20450;-91
2022/06/06 06:22:42;;;;;;;3.50;3.30;;;17.90;99.90;;;;;;5053974;28;20482;-92
2022/06/06 06:25:10;;;;;;;3.80;3.50;;;17.80;99.90;;;;;;5054410;28;20457;-89
2022/06/06 06:27:39;;;;;;;4.50;3.30;;;17.70;99.90;;;;;;5054545;28;20957;-93
2022/06/06 06:30:07;;;;;;;3.23;2.97;;;18.00;99.90;;;;;;5054094;28;20474;-90
2022/06/06 06:32:57;;;;;;;3.73;3.40;;;17.50;99.90;;;;;;5047912;28;20479;-92
2022/06/06 06:35:32;;;;;;;4.10;3.27;;;17.40;99.90;;;;;;5052983;28;20450;-91
2022/06/06 06:38:27;;;;;;;4.07;3.20;;;17.80;99.90;;;;;;5053626;28;20867;-91
2022/06/06 06:41:03;;;;;;;5.07;4.07;;;18.00;99.90;;;;;;5050477;28;20438;-91
2022/06/06 06:43:55;;;;;;;3.97;3.53;;;17.90;99.90;;;;;;5053666;28;20802;-93
2022/06/06 06:46:27;;;;;;;4.17;3.87;;;18.00;99.90;;;;;;5053426;28;20454;-91
2022/06/06 06:49:06;;;;;;;3.60;3.30;;;18.00;99.90;;;;;;5050630;28;20450;-91
2022/06/06 06:51:45;;;;;;;4.20;3.53;;;18.30;99.90;;;;;;5051209;28;20455;-91
2022/06/06 06:54:28;;;;;;;3.90;3.50;;;18.40;99.90;;;;;;5049499;28;20447;-91
2022/06/06 06:57:21;;;;;;;3.40;3.20;;;18.40;99.90;;;;;;5053770;28;20457;-91
2022/06/06 07:00:05;;;;;;;3.60;3.10;;;18.20;99.90;;;;;;5057725;28;20446;-92
2022/06/06 07:08:38;;;;;;;3.47;3.17;;;20.20;99.90;;;;;;5057353;28;20561;-94
2022/06/06 07:11:36;;;;;;;3.87;3.53;;;20.10;99.90;;;;;;5057255;28;20946;-93
2022/06/06 07:14:07;;;;;;;3.50;3.20;;;19.80;99.90;;;;;;5055579;28;20494;-92
2022/06/06 07:16:36;;;;;;;3.60;3.30;;;19.10;99.90;;;;;;5057246;28;20446;-92
2022/06/06 07:19:10;;;;;;;7.40;3.53;;;19.20;99.90;;;;;;5056787;28;20442;-93
2022/06/06 07:21:40;;;;;;;3.53;3.23;;;18.80;99.90;;;;;;5055156;28;20442;-94
2022/06/06 07:24:09;;;;;;;8.47;3.97;;;18.60;99.90;;;;;;5057482;28;20439;-91
2022/06/06 07:26:41;;;;;;;3.50;3.20;;;18.70;99.90;;;;;;5057727;28;20446;-90
2022/06/06 07:29:11;;;;;;;3.67;3.37;;;18.60;99.90;;;;;;5052987;28;20648;-90
2022/06/06 07:31:54;;;;;;;3.80;3.20;;;18.60;99.90;;;;;;5054474;28;20500;-91
2022/06/06 07:34:41;;;;;;;3.60;3.30;;;18.60;99.90;;;;;;5055622;28;21060;-91
2022/06/06 07:37:17;;;;;;;5.10;4.07;;;18.60;99.90;;;;;;5051646;28;20442;-94
2022/06/06 07:39:56;;;;;;;4.00;3.70;;;18.70;99.90;;;;;;5051760;28;20452;-93
2022/06/06 07:42:48;;;;;;;6.97;3.10;;;18.90;99.90;;;;;;5056844;28;20454;-94
2022/06/06 07:45:23;;;;;;;4.27;3.83;;;19.30;99.90;;;;;;5056476;28;20964;-92
2022/06/06 07:48:23;;;;;;;3.50;3.20;;;19.80;99.90;;;;;;5056954;28;20450;-92
2022/06/06 07:50:58;;;;;;;4.20;3.13;;;20.50;99.90;;;;;;5055569;28;20486;-90
2022/06/06 07:53:36;;;;;;;5.57;3.10;;;20.50;99.90;;;;;;5057067;28;20485;-92
2022/06/06 07:56:10;;;;;;;8.23;3.47;;;21.40;99.90;;;;;;5050830;28;20512;-92
2022/06/06 07:58:50;;;;;;;3.77;3.30;;;20.50;99.90;;;;;;5058448;28;20453;-90
2022/06/06 08:01:25;;;;;;;3.93;3.53;;;20.60;99.90;;;;;;5054759;28;20508;-92
2022/06/06 08:04:04;;;;;;;3.40;3.13;;;20.50;99.90;;;;;;5052919;28;20836;-90
2022/06/06 08:06:37;;;;;;;3.37;3.00;;;20.20;99.90;;;;;;5061494;28;20447;-92
2022/06/06 08:09:31;;;;;;;3.40;3.10;;;20.20;99.90;;;;;;5057065;28;20454;-91
2022/06/06 08:12:11;;;;;;;4.93;2.97;;;20.60;99.90;;;;;;5056127;28;20455;-92
2022/06/06 08:14:50;;;;;;;3.63;3.10;;;20.60;99.90;;;;;;5053355;28;20442;-90
2022/06/06 08:17:27;;;;;;;3.67;3.27;;;20.60;99.90;;;;;;5055871;28;20451;-90
2022/06/06 08:20:09;;;;;;;6.13;2.80;;;20.60;99.90;;;;;;5050318;28;20532;-92
2022/06/06 08:22:41;;;;;;;2.80;2.50;;;;;;;;;;5055972;28;20471;-90
2022/06/06 08:25:08;;;;;;;3.00;2.70;;;;;;;;;;5053048;28;20461;-92
2022/06/06 08:27:38;;;;;;;3.07;2.77;;;21.60;99.90;;;;;;5056911;28;20450;-90
2022/06/06 08:30:08;;;;;;;2.90;2.47;;;21.70;99.90;;;;;;5048797;28;20477;-91
2022/06/06 08:32:35;;;;;;;3.03;2.70;;;;;;;;;;5056260;28;20989;-90
2022/06/06 08:35:02;;;;;;;3.87;2.70;;;;;;;;;;5054432;28;20909;-92
2022/06/06 08:38:06;;;;;;;2.93;2.73;;;22.70;99.90;;;;;;5052522;28;20450;-91
2022/06/06 08:41:03;;;;;;;2.37;2.17;;;21.80;99.60;;;;;;5056725;28;20529;-90
2022/06/06 08:43:52;;;;;;;3.00;1.93;;;22.30;96.80;;;;;;5056294;28;20968;-94
2022/06/06 08:46:30;;;;;;;2.20;1.90;;;21.60;98.80;;;;;;5053919;28;20467;-91
2022/06/06 08:49:10;;;;;;;2.60;2.37;;;21.10;99.70;;;;;;5053293;28;20442;-92
2022/06/06 08:51:50;;;;;;;2.70;2.10;;;20.90;99.30;;;;;;5056071;28;20484;-93
2022/06/06 08:54:48;;;;;;;3.70;2.60;;;21.50;99.60;;;;;;5049904;28;20516;-89
2022/06/06 08:57:27;;;;;;;3.40;2.03;;;21.50;99.90;;;;;;5050792;28;20968;-91
2022/06/06 09:00:20;;;;;;;2.20;2.00;;;22.90;99.90;;;;;;5052089;28;20799;-92
2022/06/06 09:03:32;;;;;;;1.90;1.80;;;23.30;95.40;;;;;;5033430;28;20471;-89
2022/06/06 09:06:38;;;;;;;3.40;2.43;;;23.40;94.40;;;;;;5034290;28;20957;-91
2022/06/06 09:09:40;;;;;;;3.03;2.23;;;23.30;94.30;;;;;;5035751;28;20452;-90
2022/06/06 09:12:36;;;;;;;4.00;1.90;;;22.90;94.20;;;;;;5036289;28;20953;-92
2022/06/06 09:15:32;;;;;;;5.33;2.17;;;22.50;99.90;;;;;;5035302;28;20463;-90
2022/06/06 09:18:32;;;;;;;1.83;1.73;;;23.00;96.40;;;;;;5033836;28;20455;-92
2022/06/06 09:21:39;;;;;;;1.63;1.43;;;21.90;95.20;;;;;;5034649;28;20873;-91
2022/06/06 09:24:51;;;;;;;2.10;1.90;;;21.80;95.80;;;;;;5031014;28;20463;-90
2022/06/06 09:27:49;;;;;;;2.10;2.00;;;22.10;99.90;;;;;;5036589;28;20456;-89
2022/06/06 09:30:28;;;;;;;1.30;1.20;;;22.00;94.20;;;;;;5031230;28;20468;-89
2022/06/06 09:33:27;;;;;;;2.23;1.80;;;23.00;94.30;;;;;;5030793;28;20489;-90
2022/06/06 09:36:16;;;;;;;2.17;1.90;;;22.60;94.60;;;;;;5001874;28;20447;-90
2022/06/06 09:38:56;;;;;;;1.87;1.77;;;23.40;94.20;;;;;;5031604;28;20455;-93
2022/06/06 09:41:36;;;;;;;1.80;1.70;;;23.10;91.90;;;;;;5030170;28;20972;-94
2022/06/06 09:44:21;;;;;;;1.93;1.80;;;22.70;91.90;;;;;;5035001;28;20443;-92
2022/06/06 09:47:21;;;;;;;3.03;1.70;;;22.10;94.70;;;;;;5035092;28;20458;-91
2022/06/06 09:50:18;;;;;;;3.40;2.30;;;23.00;91.90;;;;;;5028569;28;20466;-91
2022/06/06 09:53:29;;;;;;;2.03;1.80;;;24.30;90.30;;;;;;5035014;28;20448;-93
2022/06/06 09:59:55;;;;;;;5.17;1.80;;;23.40;92.30;;;;;;5034994;28;20443;-92
2022/06/06 10:02:51;;;;;;;4.00;1.57;;;23.50;90.70;;;;;;5050840;28;20483;-91
2022/06/06 10:06:08;;;;;;;2.43;1.80;;;23.20;93.70;;;;;;5053434;28;20451;-89
2022/06/06 10:09:09;;;;;;;2.30;2.10;;;23.90;90.60;;;;;;4944697;29;20447;-92
2022/06/06 10:12:01;;;;;;;3.10;2.30;;;;;;;;;;4953723;29;20546;-93
2022/06/06 10:14:49;;;;;;;3.93;2.20;;;24.30;90.60;;;;;;5054111;28;20497;-91
2022/06/06 10:17:32;;;;;;;2.33;2.13;;;23.20;92.00;;;;;;5054874;28;20447;-93
2022/06/06 10:20:28;;;;;;;2.50;1.90;;;22.30;93.80;;;;;;5051387;28;20476;-92
2022/06/06 10:23:19;;;;;;;2.33;2.13;;;22.30;95.20;;;;;;5051749;28;20446;-92
2022/06/06 10:26:13;;;;;;;3.37;2.27;;;22.10;96.30;;;;;;5053666;28;20458;-91
2022/06/06 10:29:07;;;;;;;3.07;2.40;;;22.80;95.30;;;;;;5053864;28;20961;-93
2022/06/06 10:31:53;;;;;;;1.43;1.33;;;22.70;95.40;;;;;;5055157;28;20465;-93
2022/06/06 10:34:30;;;;;;;2.60;2.20;;;;;;;;;;5048279;28;20485;-95
2022/06/06 10:37:27;;;;;;;2.40;2.20;;;21.70;93.70;;;;;;5055862;28;20450;-89
2022/06/06 10:40:17;;;;;;;2.37;2.17;;;21.70;95.50;;;;;;5054913;28;20447;-89
2022/06/06 10:43:10;;;;;;;2.47;2.17;;;21.80;95.40;;;;;;5056811;28;20503;-89
2022/06/06 10:45:39;;;;;;;1.50;1.40;;;21.30;97.00;;;;;;5058099;28;20876;-91
2022/06/06 10:48:37;;;;;;;2.83;1.87;;;21.30;95.20;;;;;;5051772;28;20446;-91
2022/06/06 10:51:40;;;;;;;2.73;2.10;;;21.70;96.50;;;;;;5052387;28;20903;-94
2022/06/06 10:54:26;;;;;;;4.67;2.40;;;23.50;91.90;;;;;;5053455;28;20501;-93
2022/06/06 10:57:16;;;;;;;2.30;2.10;;;23.60;90.80;;;;;;5053991;28;20446;-90
2022/06/06 11:00:04;;;;;;;3.40;1.80;;;24.70;91.70;;;;;;5051141;28;20461;-90
2022/06/06 11:03:05;;;;;;;2.63;1.90;;;24.40;90.40;;;;;;5052219;28;20474;-93
2022/06/06 11:06:13;;;;;;;4.93;2.17;;;23.60;91.60;;;;;;5052333;28;20934;-93
2022/06/06 11:09:26;;;;;;;2.50;1.90;;;23.30;92.00;;;;;;5052550;28;20461;-91
2022/06/06 11:12:36;;;;;;;3.33;2.73;;;22.80;92.20;;;;;;5053291;28;20530;-90
2022/06/06 11:15:05;;;;;;;2.87;2.00;;;22.80;92.30;;;;;;5053763;28;20497;-91
2022/06/06 11:18:07;;;;;;;3.53;2.03;;;22.50;93.00;;;;;;5054182;28;20836;-92
2022/06/06 11:21:20;;;;;;;3.07;1.97;;;22.40;93.90;;;;;;5052101;28;20458;-93
2022/06/06 11:23:50;;;;;;;1.80;1.70;;;22.30;93.20;;;;;;5050221;28;20458;-91
2022/06/06 11:26:47;;;;;;;2.13;1.93;;;22.10;93.40;;;;;;5053612;28;20837;-92
2022/06/06 11:29:49;;;;;;;2.00;1.90;;;21.80;93.60;;;;;;5053885;28;20466;-90
2022/06/06 11:32:55;;;;;;;2.43;2.13;;;21.80;93.40;;;;;;5050197;28;20835;-95
2022/06/06 11:35:30;;;;;;;2.27;2.07;;;21.40;93.20;;;;;;5052518;28;20493;-93
2022/06/06 11:38:26;;;;;;;2.83;2.00;;;21.40;93.90;;;;;;5053202;28;20446;-92
2022/06/06 11:41:07;;;;;;;2.47;2.27;;;21.30;95.30;;;;;;5053128;28;20465;-93
2022/06/06 11:44:25;;;;;;;2.03;1.80;;;21.30;94.20;;;;;;5054975;28;20458;-91
2022/06/06 11:47:33;;;;;;;2.10;2.00;;;21.60;94.40;;;;;;5054927;28;20465;-92
2022/06/06 11:50:36;;;;;;;2.33;1.90;;;21.60;93.00;;;;;;5052202;28;20458;-89
2022/06/06 11:53:30;;;;;;;4.10;2.20;;;21.60;94.30;;;;;;5053634;28;20446;-92
2022/06/06 11:56:11;;;;;;;4.50;1.80;;;21.70;92.00;;;;;;5054102;28;20465;-91
2022/06/06 11:59:18;;;;;;;1.60;1.50;;;21.50;93.40;;;;;;5056840;28;20446;-92
2022/06/06 12:02:31;;;;;;;3.00;2.23;;;21.40;94.30;;;;;;5012498;28;20493;-91
2022/06/06 12:05:30;;;;;;;2.00;1.90;;;21.20;93.50;;;;;;5053269;28;20482;-93
2022/06/06 12:08:40;;;;;;;2.97;1.90;;;21.00;94.00;;;;;;5056641;28;20520;-90
2022/06/06 12:11:55;;;;;;;2.83;2.20;;;20.80;94.40;;;;;;5056504;28;20462;-89
2022/06/06 12:15:04;;;;;;;1.80;1.70;;;20.80;94.60;;;;;;5053489;28;20798;-94
2022/06/06 12:17:52;;;;;;;2.00;1.90;;;21.00;95.00;;;;;;5056341;28;20450;-95
2022/06/06 12:20:44;;;;;;;2.40;1.87;;;21.20;94.40;;;;;;5051177;28;20447;-92
2022/06/06 12:23:16;;;;;;;2.37;1.87;;;21.70;92.80;;;;;;5053228;28;20443;-90
2022/06/06 12:26:01;;;;;;;2.03;1.40;;;22.10;91.90;;;;;;5056210;28;20961;-89
2022/06/06 12:28:56;;;;;;;1.60;1.50;;;22.80;92.90;;;;;;5056313;28;20477;-94
2022/06/06 12:31:57;;;;;;;2.47;2.27;;;23.80;90.00;;;;;;5056374;28;20453;-93
2022/06/06 12:34:31;;;;;;;2.80;2.07;;;23.00;87.60;;;;;;5036227;28;20496;-93
2022/06/06 12:37:09;;;;;;;2.07;1.70;;;23.70;92.40;;;;;;5056323;28;20961;-92
2022/06/06 12:39:51;;;;;;;3.33;1.77;;;23.80;91.10;;;;;;5056202;28;20443;-92
2022/06/06 12:42:31;;;;;;;2.20;2.00;;;24.70;90.70;;;;;;5052602;28;20457;-88
2022/06/06 12:45:25;;;;;;;1.93;1.70;;;24.40;86.60;;;;;;5053273;28;20803;-91
2022/06/06 12:48:16;;;;;;;2.00;1.80;;;24.00;87.00;;;;;;5052197;28;20447;-92
2022/06/06 12:50:56;;;;;;;2.20;2.00;;;24.90;91.70;;;;;;5052120;28;20458;-91
2022/06/06 12:54:07;;;;;;;1.50;1.40;;;25.00;83.20;;;;;;5056154;28;20442;-89
2022/06/06 12:56:49;;;;;;;6.73;2.23;;;25.10;90.60;;;;;;5050093;28;20454;-94
2022/06/06 12:59:47;;;;;;;2.27;1.83;;;25.50;84.80;;;;;;5049687;28;20451;-91
2022/06/06 13:02:33;;;;;;;1.60;1.50;;;24.30;90.60;;;;;;5057481;28;20883;-92
2022/06/06 13:05:09;;;;;;;1.90;1.60;;;23.40;91.90;;;;;;5056648;28;20976;-89
2022/06/06 13:08:14;;;;;;;2.03;1.90;;;23.00;87.50;;;;;;5056180;28;20446;-91
2022/06/06 13:10:56;;;;;;;2.27;2.07;;;22.70;92.40;;;;;;5051962;28;20447;-91
2022/06/06 13:13:44;;;;;;;2.10;1.73;;;22.30;88.50;;;;;;5055971;28;20446;-91
2022/06/06 13:16:26;;;;;;;2.07;1.83;;;22.40;92.30;;;;;;5078741;28;20438;-92
2022/06/06 13:19:31;;;;;;;1.90;1.70;;;22.30;91.30;;;;;;5066009;28;20453;-92
2022/06/06 13:22:08;;;;;;;1.70;1.60;;;21.90;90.80;;;;;;5063173;28;20446;-89
2022/06/06 13:25:05;;;;;;;1.87;1.77;;;21.70;91.10;;;;;;5059320;28;20484;-90
2022/06/06 13:27:52;;;;;;;4.07;2.23;;;21.50;92.20;;;;;;5055102;28;20616;-90
2022/06/06 13:30:23;;;;;;;2.13;1.97;;;21.40;92.00;;;;;;5049102;28;20453;-89
2022/06/06 13:32:58;;;;;;;2.13;2.03;;;21.20;92.90;;;;;;5055288;28;20811;-92
2022/06/06 13:35:32;;;;;;;2.03;1.83;;;21.00;92.40;;;;;;5047278;28;20849;-88
2022/06/06 13:38:13;;;;;;;1.70;1.60;;;20.80;92.40;;;;;;5048836;28;20446;-90
2022/06/06 13:40:55;;;;;;;2.43;1.80;;;20.70;92.90;;;;;;5050513;28;20449;-93
2022/06/06 13:43:50;;;;;;;1.80;1.70;;;20.70;93.90;;;;;;5055355;28;20946;-92
2022/06/06 13:46:38;;;;;;;5.67;2.00;;;20.70;93.20;;;;;;5056349;28;20930;-93
2022/06/06 13:49:28;;;;;;;3.03;2.10;;;20.70;94.30;;;;;;5054043;28;20459;-92
2022/06/06 13:52:07;;;;;;;2.23;1.97;;;20.60;96.30;;;;;;5050833;28;20965;-92
2022/06/06 13:54:36;;;;;;;4.90;2.13;;;20.70;96.00;;;;;;5052654;28;20485;-92
2022/06/06 13:57:22;;;;;;;3.03;1.80;;;20.70;94.30;;;;;;5054669;28;20443;-91
2022/06/06 14:00:05;;;;;;;3.43;2.30;;;20.80;94.20;;;;;;5050004;28;20474;-92
2022/06/06 14:03:23;;;;;;;1.57;1.47;;;20.80;94.20;;;;;;5051923;28;20474;-91
2022/06/06 14:06:07;;;;;;;2.60;2.00;;;20.60;95.30;;;;;;4964283;28;20458;-90
2022/06/06 14:08:52;;;;;;;1.83;1.73;;;20.60;96.40;;;;;;4994032;28;20449;-93
2022/06/06 14:11:45;;;;;;;2.30;2.03;;;20.80;95.30;;;;;;5032359;28;20458;-93
2022/06/06 14:14:17;;;;;;;2.83;2.43;;;20.90;97.50;;;;;;5051620;28;20486;-92
2022/06/06 14:16:49;;;;;;;2.63;2.40;;;20.80;96.20;;;;;;5048495;28;20454;-93
2022/06/06 14:19:18;;;;;;;3.60;2.20;;;20.20;94.90;;;;;;5041901;28;20789;-92
2022/06/06 14:21:51;;;;;;;4.00;2.10;;;21.00;96.10;;;;;;5050642;28;20454;-93
2022/06/06 14:24:19;;;;;;;3.37;2.10;;;21.40;96.70;;;;;;5053180;28;20457;-93
2022/06/06 14:26:53;;;;;;;2.40;2.20;;;21.80;95.60;;;;;;5055527;28;20561;-93
2022/06/06 14:29:29;;;;;;;2.90;2.30;;;22.10;95.70;;;;;;5050387;28;20447;-92
2022/06/06 14:32:01;;;;;;;2.47;2.27;;;22.10;94.40;;;;;;5051316;28;20462;-91
2022/06/06 14:34:37;;;;;;;2.53;2.20;;;22.40;95.60;;;;;;5050082;28;20477;-93
2022/06/06 14:37:10;;;;;;;3.00;2.50;;;22.70;95.80;;;;;;5049978;28;20438;-93
2022/06/06 14:39:38;;;;;;;2.60;2.30;;;;;;;;;;5051347;28;20469;-92